DW8835 La Escala ES current weather conditions

sailwx.info

Wind from 337 at 12 knots gusting 25

Air temperature 17.2° C
Dewpoint 7.0° C

Last reported at 2014-Oct-22 08:45 UTC.
Time now 2014-Oct-22 09:46 UTC

Location: N 42°07' E 003°08'.
View on Google Maps.

See reports from other nearby stations

  
Tides and Currents Weather Stations Pressure Air Temp Water Temp Dewpoint Dewpoint Depression Visibility Wind Speed Wind Dir Waves Ship Positions
date/time (UTC)wind fromknots sea level pressurealtimeterstation pressurevisibilityair tempwater tempwave heightnotes
2014-Oct-22 08:45 337 12 gusting 25 17.2
2014-Oct-22 08:35 289 13 gusting 25 17.2
2014-Oct-22 08:26 306 9 gusting 21 17.2
2014-Oct-22 08:15 336 12 gusting 22 17.2
2014-Oct-22 08:06 336 12 gusting 30 17.2
2014-Oct-22 07:55 015 9 gusting 20 17.2
2014-Oct-22 07:46 046 7 gusting 19 17.2
2014-Oct-22 07:35 054 8 gusting 19 17.2
2014-Oct-22 07:25 346 7 gusting 19 17.2
2014-Oct-22 07:15 024 9 gusting 23 17.2
2014-Oct-22 07:06 312 13 gusting 28 17.2
2014-Oct-22 06:56 309 9 gusting 25 16.7
2014-Oct-22 06:46 011 7 gusting 18 16.7
2014-Oct-22 06:36 346 13 gusting 34 16.7
2014-Oct-22 06:25 312 10 gusting 21 16.1
2014-Oct-22 06:15 298 10 gusting 23 16.1
2014-Oct-22 06:05 319 13 gusting 26 16.7
2014-Oct-22 05:55 337 13 gusting 30 16.7
2014-Oct-22 05:45 323 12 gusting 27 16.1
2014-Oct-22 05:36 327 11 gusting 20 16.1
2014-Oct-22 05:25 010 10 gusting 23 16.1
2014-Oct-22 05:15 323 11 gusting 24 16.1
2014-Oct-22 05:05 301 10 gusting 21 16.1
2014-Oct-22 04:55 019 9 gusting 23 16.1
2014-Oct-22 04:46 320 13 gusting 23 16.1
2014-Oct-22 04:35 351 12 gusting 26 16.1
2014-Oct-22 04:25 340 11 gusting 28 16.7
2014-Oct-22 04:15 319 11 gusting 30 16.7
2014-Oct-22 04:05 337 17 gusting 27 16.7
2014-Oct-22 03:55 336 16 gusting 30 16.7
2014-Oct-22 03:45 287 16 gusting 27 16.7
2014-Oct-22 03:35 311 19 gusting 26 16.7
2014-Oct-22 03:25 323 15 gusting 28 17.2
2014-Oct-22 03:15 327 14 gusting 28 17.2
2014-Oct-22 03:05 355 16 gusting 27 17.2
2014-Oct-22 02:56 303 15 gusting 26 17.8
2014-Oct-22 02:45 330 19 gusting 36 18.3
2014-Oct-22 02:36 321 15 gusting 38 18.3
2014-Oct-22 02:25 333 16 gusting 29 18.3
2014-Oct-22 02:15 255 17 gusting 32 18.3
2014-Oct-22 02:05 005 16 gusting 31 18.3
2014-Oct-22 01:55 017 14 gusting 28 18.3
2014-Oct-22 01:45 360 15 gusting 28 18.3
2014-Oct-22 01:35 346 13 gusting 26 18.9
2014-Oct-22 01:25 317 12 gusting 22 18.9
2014-Oct-22 01:15 360 12 gusting 20 19.4
2014-Oct-22 01:05 341 10 gusting 19 20.0
2014-Oct-22 00:56 333 10 gusting 19 20.6
2014-Oct-22 00:45 327 13 gusting 27 21.1
2014-Oct-22 00:35 335 10 gusting 21 21.1
2014-Oct-22 00:26 005 13 gusting 23 21.1
2014-Oct-22 00:15 309 9 gusting 22 21.1
2014-Oct-22 00:05 355 13 gusting 23 21.1
2014-Oct-21 23:55 342 10 gusting 19 21.1
2014-Oct-21 23:46 355 12 gusting 18 20.6
2014-Oct-21 23:35 321 6 gusting 13 20.6
2014-Oct-21 23:25 338 7 gusting 17 20.6
2014-Oct-21 23:16 342 8 gusting 16 20.6
2014-Oct-21 23:06 337 6 gusting 13 20.6
2014-Oct-21 22:55 340 6 gusting 12 20.6
2014-Oct-21 22:45 350 4 gusting 9 21.1
2014-Oct-21 22:35 355 4 gusting 10 21.1
2014-Oct-21 22:25 340 5 gusting 9 20.6
2014-Oct-21 22:15 345 3 gusting 8 20.6
2014-Oct-21 22:05 005 3 gusting 7 20.0
2014-Oct-21 21:55 348 2 gusting 9 18.9
2014-Oct-21 21:45 022 4 gusting 11 18.3
2014-Oct-21 21:35 196 4 gusting 6 18.3
2014-Oct-21 21:25 313 18.3
2014-Oct-21 21:15 284 2 gusting 5 18.3
2014-Oct-21 21:05 157 0 gusting 4 18.3
2014-Oct-21 20:55 175 18.9
2014-Oct-21 20:45 171 18.9
2014-Oct-21 20:35 184 1 gusting 3 18.9
2014-Oct-21 20:25 157 18.9
2014-Oct-21 20:15 186 18.9
2014-Oct-21 20:05 212 19.4
2014-Oct-21 19:55 158 19.4
2014-Oct-21 19:45 155 19.4
2014-Oct-21 19:35 153 20.0
2014-Oct-21 19:25 148 1 gusting 3 20.0
2014-Oct-21 19:15 346 20.0
2014-Oct-21 19:05 347 20.6
2014-Oct-21 18:55 347 20.6
2014-Oct-21 18:45 347 20.6
2014-Oct-21 18:35 232 0 gusting 1 21.1
2014-Oct-21 18:25 232 21.7
2014-Oct-21 18:15 232 21.7
2014-Oct-21 18:05 232 1 gusting 2 22.2
2014-Oct-21 17:55 157 22.2
2014-Oct-21 17:45 156 0 gusting 2 22.2
2014-Oct-21 17:35 155 2 gusting 4 22.8
2014-Oct-21 17:25 175 1 gusting 3 22.8
2014-Oct-21 17:15 169 1 gusting 4 23.3
2014-Oct-21 17:05 155 1 gusting 4 23.3
2014-Oct-21 16:55 164 1 gusting 3 23.9
2014-Oct-21 16:45 165 1 gusting 3 23.9
2014-Oct-21 16:35 177 0 gusting 6 23.9
2014-Oct-21 16:25 176 3 gusting 6 23.9
2014-Oct-21 16:15 157 2 gusting 5 24.4
2014-Oct-21 16:05 157 2 gusting 4 24.4
2014-Oct-21 15:55 158 3 gusting 5 25.0
2014-Oct-21 15:45 166 2 gusting 4 25.0
2014-Oct-21 15:35 139 1 gusting 3 25.6
2014-Oct-21 15:25 146 1 gusting 3 25.6
2014-Oct-21 15:15 162 1 gusting 4 25.0
2014-Oct-21 15:05 179 0 gusting 4 25.0
2014-Oct-21 14:55 165 1 gusting 4 25.0
2014-Oct-21 14:35 169 0 gusting 4 24.4
2014-Oct-21 14:25 136 1 gusting 6 24.4
2014-Oct-21 14:15 138 4 gusting 6 24.4
2014-Oct-21 13:55 124 2 gusting 6 24.4
2014-Oct-21 13:35 117 1 gusting 6 23.9
2014-Oct-21 13:25 088 2 gusting 5 24.4
2014-Oct-21 13:15 094 2 gusting 6 24.4
2014-Oct-21 13:05 090 3 gusting 6 24.4
2014-Oct-21 12:55 098 2 gusting 4 25.0
2014-Oct-21 12:45 094 2 gusting 4 25.0
2014-Oct-21 12:35 071 2 gusting 4 25.0
2014-Oct-21 12:25 111 3 gusting 6 24.4
2014-Oct-21 12:15 088 1 gusting 4 25.0
2014-Oct-21 12:05 106 2 gusting 4 24.4
2014-Oct-21 11:55 100 1 gusting 2 24.4
2014-Oct-21 11:45 107 0 gusting 4 24.4
2014-Oct-21 11:35 092 2 gusting 5 24.4
2014-Oct-21 11:25 115 2 gusting 4 24.4
2014-Oct-21 11:15 109 0 gusting 4 23.9
2014-Oct-21 10:55 105 1 gusting 4 23.3
2014-Oct-21 10:45 087 0 gusting 2 23.9
2014-Oct-21 10:36 078 23.3
2014-Oct-21 10:26 077 1 gusting 3 23.3
2014-Oct-21 10:16 123 0 gusting 2 22.8
2014-Oct-21 10:06 259 22.2
2014-Oct-21 09:56 256 21.7
2014-Oct-21 09:46 265 0 gusting 5 21.7
2014-Oct-21 09:36 232 2 gusting 4 21.1
2014-Oct-21 09:26 278 2 gusting 4 20.0
2014-Oct-21 09:16 290 1 gusting 2 19.4
2014-Oct-21 09:06 202 19.4
2014-Oct-21 08:56 201 4 gusting 6 18.9
2014-Oct-21 08:46 194 0 gusting 5 17.8
2014-Oct-21 08:36 254 0 gusting 4 17.2
2014-Oct-21 08:26 194 3 gusting 5 17.2
2014-Oct-21 08:16 225 0 gusting 3 16.7
2014-Oct-21 08:06 202 2 gusting 4 16.1
2014-Oct-21 07:56 238 2 gusting 4 15.6
2014-Oct-21 07:46 266 0 gusting 2 15.6
2014-Oct-21 07:36 170 2 gusting 3 15.0
2014-Oct-21 07:26 181 15.0
2014-Oct-21 07:16 214 15.0
2014-Oct-21 07:06 175 15.0
2014-Oct-21 06:56 172 15.0
2014-Oct-21 06:46 186 14.4
2014-Oct-21 06:36 185 14.4
2014-Oct-21 06:26 185 14.4
2014-Oct-21 06:16 185 14.4
2014-Oct-21 06:06 185 14.4
2014-Oct-21 05:56 185 0 gusting 2 14.4
2014-Oct-21 05:46 184 2 gusting 4 14.4
2014-Oct-21 05:36 198 0 gusting 3 14.4
2014-Oct-21 05:26 205 14.4
2014-Oct-21 05:16 208 14.4
2014-Oct-21 05:06 207 14.4
2014-Oct-21 04:56 207 14.4
2014-Oct-21 04:46 207 14.4
2014-Oct-21 04:36 207 14.4
2014-Oct-21 04:26 207 15.0
2014-Oct-21 04:16 210 15.0
2014-Oct-21 04:06 210 15.0
2014-Oct-21 03:56 210 15.0
2014-Oct-21 03:46 210 15.0
2014-Oct-21 03:36 210 15.0
2014-Oct-21 03:26 210 15.6
2014-Oct-21 03:16 210 15.6
2014-Oct-21 03:06 209 15.6
2014-Oct-21 02:56 184 15.6
2014-Oct-21 02:46 184 15.6
2014-Oct-21 02:36 184 15.6
2014-Oct-21 02:26 180 2 gusting 3 15.6
2014-Oct-21 02:16 186 0 gusting 2 15.6
2014-Oct-21 02:06 182 2 gusting 4 15.6
2014-Oct-21 01:56 195 0 gusting 5 15.6
2014-Oct-21 01:46 173 1 gusting 4 15.6
2014-Oct-21 01:36 221 0 gusting 4 16.1
2014-Oct-21 01:26 236 16.1
2014-Oct-21 01:16 202 1 gusting 5 16.1
2014-Oct-21 01:06 199 2 gusting 4 16.1
2014-Oct-21 00:56 190 1 gusting 3 16.1
2014-Oct-21 00:46 198 0 gusting 2 16.1
2014-Oct-21 00:36 197 1 gusting 3 16.1
2014-Oct-21 00:26 189 16.1
2014-Oct-21 00:16 138 16.1
2014-Oct-21 00:06 114 16.1
2014-Oct-20 23:56 114 16.7
2014-Oct-20 23:46 113 16.7
2014-Oct-20 23:36 022 16.7
2014-Oct-20 23:26 022 16.7
2014-Oct-20 23:16 022 17.2
2014-Oct-20 23:06 022 17.2
2014-Oct-20 22:56 022 17.2
2014-Oct-20 22:46 022 17.2
2014-Oct-20 22:36 022 0 gusting 3 17.8
2014-Oct-20 22:26 022 0 gusting 1 17.8
2014-Oct-20 22:16 022 17.8
2014-Oct-20 22:06 022 17.8
2014-Oct-20 21:56 022 17.8
2014-Oct-20 21:46 022 18.3
2014-Oct-20 21:36 022 18.3
2014-Oct-20 21:26 022 18.3
2014-Oct-20 21:16 022 1 gusting 2 18.3
2014-Oct-20 21:06 022 0 gusting 2 18.3
2014-Oct-20 20:56 022 0 gusting 2 18.3
2014-Oct-20 20:46 022 1 gusting 2 18.3
2014-Oct-20 20:36 022 18.3
2014-Oct-20 20:26 022 1 gusting 2 18.3
2014-Oct-20 20:16 022 1 gusting 2 18.3
2014-Oct-20 20:06 022 18.3
2014-Oct-20 19:56 022 18.9
2014-Oct-20 19:46 022 1 gusting 3 18.9
2014-Oct-20 19:36 022 2 gusting 3 18.9
2014-Oct-20 19:26 023 19.4
2014-Oct-20 19:16 080 19.4
2014-Oct-20 19:06 114 20.0
2014-Oct-20 18:56 115 20.0
2014-Oct-20 18:46 115 20.0
2014-Oct-20 18:36 115 20.6
2014-Oct-20 18:26 115 20.6
2014-Oct-20 18:16 115 20.6
2014-Oct-20 18:06 115 20.6
2014-Oct-20 17:56 115 21.1
2014-Oct-20 17:46 115 21.1
2014-Oct-20 17:36 115 21.1
2014-Oct-20 17:26 113 21.1
2014-Oct-20 17:16 113 1 gusting 4 21.1
2014-Oct-20 17:06 102 0 gusting 4 21.1
2014-Oct-20 16:56 115 1 gusting 4 21.7
2014-Oct-20 16:46 117 2 gusting 4 21.7
2014-Oct-20 16:36 093 2 gusting 4 21.7
2014-Oct-20 16:26 130 1 gusting 4 21.7
2014-Oct-20 16:16 103 1 gusting 5 21.7
2014-Oct-20 16:06 096 2 gusting 4 21.7
2014-Oct-20 15:56 091 2 gusting 7 21.7
2014-Oct-20 15:46 134 3 gusting 6 22.2
2014-Oct-20 15:36 102 2 gusting 7 22.2
2014-Oct-20 15:26 121 2 gusting 6 22.2
2014-Oct-20 15:16 092 2 gusting 4 22.2
2014-Oct-20 15:06 085 3 gusting 6 22.2
2014-Oct-20 14:56 128 1 gusting 6 22.2
2014-Oct-20 14:46 138 2 gusting 6 22.2
2014-Oct-20 14:36 107 3 gusting 6 22.2
2014-Oct-20 14:26 090 3 gusting 7 22.2
2014-Oct-20 14:16 125 2 gusting 6 22.2
2014-Oct-20 14:06 096 3 gusting 6 22.2
2014-Oct-20 13:56 094 3 gusting 6 22.2
2014-Oct-20 13:46 110 4 gusting 7 22.2
2014-Oct-20 13:36 132 3 gusting 7 22.2
2014-Oct-20 13:26 111 4 gusting 6 22.2
2014-Oct-20 13:16 105 3 gusting 7 22.2
2014-Oct-20 13:06 094 3 gusting 6 21.7
2014-Oct-20 12:56 114 2 gusting 7 22.2
2014-Oct-20 12:46 106 3 gusting 8 22.2
2014-Oct-20 12:36 104 4 gusting 6 21.7
2014-Oct-20 12:26 065 4 gusting 7 22.2
2014-Oct-20 12:16 065 2 gusting 6 21.7
2014-Oct-20 12:06 113 2 gusting 6 21.7
2014-Oct-20 11:56 117 5 gusting 6 21.7
2014-Oct-20 11:46 082 3 gusting 6 21.7
2014-Oct-20 11:36 117 3 gusting 6 22.2
2014-Oct-20 11:26 090 1 gusting 5 22.2
2014-Oct-20 11:16 167 2 gusting 5 21.7
2014-Oct-20 11:06 167 0 gusting 4 21.7
2014-Oct-20 10:56 185 2 gusting 5 21.7
2014-Oct-20 10:46 190 1 gusting 5 21.1
2014-Oct-20 10:36 184 0 gusting 4 21.7
2014-Oct-20 10:26 157 2 gusting 5 21.1
2014-Oct-20 10:16 220 0 gusting 5 21.1
2014-Oct-20 10:06 188 3 gusting 4 21.1
2014-Oct-20 09:56 240 2 gusting 5 20.6
2014-Oct-20 09:46 172 2 gusting 5 20.6
2014-Oct-20 09:36 182 3 gusting 5 20.0
2014-Oct-20 09:26 209 1 gusting 5 20.0
2014-Oct-20 09:16 216 2 gusting 5 19.4
2014-Oct-20 09:06 207 1 gusting 4 18.9